Главная страница
METAR-TAF:

METAR-TAF

Аэропорты :

Хаммерфест, Норвегия

широта: 70-40N, долгота: 023-40E, высота над уровнем моря: 8 м

Текущие метеонаблюдения

Эта сводка был подготовлена 21 минут назад, в 14:50 UTC
Ветер 8 Узел от восточно-северо-восточный
Температура 10°C
Влажность 82%
Давление 1014 hPa
Видимость 10 км и более

METAR: ENHF 221450Z AUTO 07008KT 9999 BKN023/// OVC031/// 10/07 Q1014 RMK WIND 1254FT 35006KT

Время: 17:11 (15:11 UTC)

Прогноз

Эта сводка был подготовлена 1 час и 11 минут назад, в 14:00 UTC
Прогноз действительный с 22-го 15 UTC до 22-го 24 UTC
Ветер 8 Узел от северно-северо-западный
Видимость 10 км и более
Рассеянная облачность на высоте 3000 фута

TAF: ENHF 221400Z 2215/2224 34008KT 9999 BKN030

Метеонаблюдения и прогнозы для более 4000 аэропортов (сводки METAR и TAF).

Имеющиеся станции представлены на карте желтыми и красными точками.

Чтобы увидеть название станции, наведите на нее мышь.

Затем щелкните, чтобы увидеть метеонаблюдения и метеопрогнозы.

Управление картой: чтобы увеличить масштаб, щелкните зеленые кнопки с черным крестиком; чтобы уменьшить масштаб, щелкните зеленую кнопку с тире; для просмотра соседних карт щелкайте зеленые стрелки.


METAR-TAF: